Time;durP1;ratioP1;P1;durP2;ratioP2;P2;SDS_P1;SDS_P2;PMS_P1;PMS_P2;Temp;Humidity;BMP_temperature;BMP_pressure;BME280_temperature;BME280_humidity;BME280_pressure;Samples;Min_cycle;Max_cycle;Signal;HPM_P1;HPM_P2
2023/05/20 00:01:52;;;;;;;5.35;2.00;;;14.90;96.00;;;;;;4994169;28;20037;-53
2023/05/20 00:04:18;;;;;;;1.90;1.80;;;14.80;96.20;;;;;;4993803;28;20537;-56
2023/05/20 00:06:43;;;;;;;3.72;2.00;;;14.70;96.30;;;;;;4993832;28;20022;-54
2023/05/20 00:09:09;;;;;;;4.95;2.10;;;14.70;96.40;;;;;;4993328;28;20027;-54
2023/05/20 00:11:35;;;;;;;4.97;2.22;;;14.70;96.50;;;;;;4993554;28;20110;-55
2023/05/20 00:14:00;;;;;;;9.05;2.17;;;14.70;96.60;;;;;;4993806;28;20054;-49
2023/05/20 00:16:26;;;;;;;3.95;2.78;;;14.70;96.70;;;;;;4993728;28;20026;-52
2023/05/20 00:18:52;;;;;;;11.23;2.00;;;14.70;96.80;;;;;;4992438;28;20442;-54
2023/05/20 00:21:17;;;;;;;3.00;2.03;;;14.60;97.00;;;;;;4993353;28;20034;-54
2023/05/20 00:23:43;;;;;;;3.47;2.40;;;14.60;97.20;;;;;;4993592;28;20034;-50
2023/05/20 00:26:09;;;;;;;3.72;2.30;;;14.50;97.30;;;;;;4993529;28;20027;-54
2023/05/20 00:28:35;;;;;;;2.70;1.90;;;14.40;97.50;;;;;;4993104;28;20056;-51
2023/05/20 00:31:00;;;;;;;4.93;3.03;;;14.50;97.70;;;;;;4993268;28;20089;-53
2023/05/20 00:33:27;;;;;;;3.58;2.10;;;14.40;97.80;;;;;;4993454;28;20049;-55
2023/05/20 00:35:52;;;;;;;3.20;2.38;;;14.40;98.00;;;;;;4993075;28;20109;-54
2023/05/20 00:38:18;;;;;;;3.33;2.15;;;14.30;98.20;;;;;;4992873;28;20031;-52
2023/05/20 00:40:43;;;;;;;4.28;2.42;;;14.30;98.30;;;;;;4993162;28;20030;-50
2023/05/20 00:43:09;;;;;;;2.45;2.20;;;14.30;98.40;;;;;;4992888;28;20034;-53
2023/05/20 00:45:36;;;;;;;2.47;2.28;;;14.20;98.50;;;;;;4992789;28;20064;-57
2023/05/20 00:48:02;;;;;;;6.10;2.00;;;14.20;98.70;;;;;;4991893;28;20026;-50
2023/05/20 00:50:28;;;;;;;3.72;2.38;;;14.20;98.90;;;;;;4992870;28;20148;-53
2023/05/20 00:52:54;;;;;;;9.15;2.65;;;14.20;99.10;;;;;;4992677;28;20441;-50
2023/05/20 00:55:21;;;;;;;2.30;2.10;;;14.20;99.20;;;;;;4993030;28;20018;-54
2023/05/20 00:57:48;;;;;;;9.93;3.00;;;14.10;99.40;;;;;;4993045;28;20109;-56
2023/05/20 01:00:14;;;;;;;3.88;1.80;;;14.00;99.50;;;;;;4992351;28;20077;-54
2023/05/20 01:02:39;;;;;;;2.53;2.17;;;14.00;99.70;;;;;;4992408;28;20109;-56
2023/05/20 01:05:05;;;;;;;4.28;2.25;;;14.00;99.90;;;;;;4992688;28;20406;-53
2023/05/20 01:07:31;;;;;;;6.72;2.45;;;14.00;99.90;;;;;;4992722;28;20026;-53
2023/05/20 01:09:57;;;;;;;3.28;2.10;;;13.90;99.90;;;;;;4990998;28;20040;-52
2023/05/20 01:12:30;;;;;;;2.85;2.55;;;13.80;99.90;;;;;;4992328;28;20026;-54
2023/05/20 01:15:04;;;;;;;2.13;1.92;;;13.80;99.90;;;;;;4992630;28;20053;-53
2023/05/20 01:17:31;;;;;;;8.98;2.47;;;13.70;99.90;;;;;;4992636;28;20027;-54
2023/05/20 01:19:58;;;;;;;5.07;2.38;;;13.70;99.90;;;;;;4992013;28;20085;-54
2023/05/20 01:22:28;;;;;;;2.53;2.30;;;13.70;99.90;;;;;;4990835;28;20089;-52
2023/05/20 01:24:54;;;;;;;4.15;2.45;;;13.60;99.90;;;;;;4992432;28;20494;-54
2023/05/20 01:27:24;;;;;;;6.35;2.25;;;13.60;99.90;;;;;;4992454;28;20065;-56
2023/05/20 01:29:51;;;;;;;3.78;2.40;;;13.60;99.90;;;;;;4991053;28;20029;-52
2023/05/20 01:32:23;;;;;;;8.52;2.50;;;13.60;99.90;;;;;;4991997;28;20022;-50
2023/05/20 01:34:50;;;;;;;6.20;2.42;;;13.50;99.90;;;;;;4992232;28;20077;-55
2023/05/20 01:37:17;;;;;;;11.40;3.58;;;13.50;99.90;;;;;;4992175;28;20030;-54
2023/05/20 01:39:44;;;;;;;3.67;2.67;;;13.50;99.90;;;;;;4991810;28;20018;-56
2023/05/20 01:42:10;;;;;;;4.60;2.45;;;13.50;99.90;;;;;;4991846;28;20045;-55
2023/05/20 01:44:36;;;;;;;5.32;2.67;;;13.50;99.90;;;;;;4992005;28;20036;-52
2023/05/20 01:47:02;;;;;;;6.15;2.30;;;13.50;99.90;;;;;;4991153;28;20014;-53
2023/05/20 01:49:28;;;;;;;4.28;2.60;;;13.50;99.90;;;;;;4991695;28;20548;-52
2023/05/20 01:51:54;;;;;;;5.20;2.60;;;13.50;99.90;;;;;;4991724;28;20034;-53
2023/05/20 01:54:19;;;;;;;6.88;2.70;;;13.40;99.90;;;;;;4991912;28;20022;-53
2023/05/20 01:56:45;;;;;;;6.38;3.25;;;13.40;99.90;;;;;;4992058;28;20105;-56
2023/05/20 01:59:11;;;;;;;2.90;2.60;;;13.40;99.90;;;;;;4990436;28;20066;-53
2023/05/20 02:01:37;;;;;;;3.15;2.80;;;13.40;99.90;;;;;;4991702;28;20035;-56
2023/05/20 02:04:02;;;;;;;3.22;2.60;;;13.40;99.90;;;;;;4991907;28;20483;-54
2023/05/20 02:06:28;;;;;;;3.17;2.50;;;13.40;99.90;;;;;;4991912;28;20041;-50
2023/05/20 02:08:53;;;;;;;2.70;2.50;;;13.40;99.90;;;;;;4990118;28;20022;-58
2023/05/20 02:11:20;;;;;;;4.07;2.63;;;13.30;99.90;;;;;;4991577;28;20499;-55
2023/05/20 02:13:45;;;;;;;3.72;2.65;;;13.30;99.90;;;;;;4991834;28;20093;-55
2023/05/20 02:16:11;;;;;;;5.60;2.22;;;13.30;99.90;;;;;;4991938;28;20154;-53
2023/05/20 02:18:37;;;;;;;8.93;2.85;;;13.30;99.90;;;;;;4991698;28;20474;-53
2023/05/20 02:21:03;;;;;;;3.30;3.00;;;13.20;99.90;;;;;;4991066;28;20042;-54
2023/05/20 02:23:30;;;;;;;2.75;2.55;;;13.30;99.90;;;;;;4992126;28;20038;-52
2023/05/20 02:25:55;;;;;;;2.85;2.33;;;13.30;99.90;;;;;;4992439;28;20435;-54
2023/05/20 02:28:21;;;;;;;7.68;2.75;;;13.20;99.90;;;;;;4992716;28;20073;-56
2023/05/20 02:30:46;;;;;;;6.97;2.78;;;13.20;99.90;;;;;;4992570;28;20026;-56
2023/05/20 02:33:12;;;;;;;3.75;3.15;;;13.20;99.90;;;;;;4991030;28;20025;-50
2023/05/20 02:35:38;;;;;;;3.33;2.60;;;13.20;99.90;;;;;;4991303;28;20033;-53
2023/05/20 02:38:04;;;;;;;3.42;2.83;;;13.20;99.90;;;;;;4991912;28;20054;-54
2023/05/20 02:40:30;;;;;;;4.40;2.92;;;13.20;99.90;;;;;;4992485;28;20150;-53
2023/05/20 02:42:56;;;;;;;6.53;2.50;;;13.20;99.90;;;;;;4995384;28;20065;-55
2023/05/20 02:45:22;;;;;;;3.55;2.70;;;13.10;99.90;;;;;;4996411;28;20035;-53
2023/05/20 02:47:47;;;;;;;3.63;2.47;;;13.10;99.90;;;;;;4996158;28;20022;-54
2023/05/20 02:50:13;;;;;;;4.85;3.00;;;13.10;99.90;;;;;;4995327;28;20034;-52
2023/05/20 02:52:41;;;;;;;3.95;3.00;;;13.10;99.90;;;;;;4995539;28;20018;-54
2023/05/20 02:55:07;;;;;;;5.40;2.92;;;13.10;99.90;;;;;;4995491;28;20030;-50
2023/05/20 02:57:35;;;;;;;7.22;3.90;;;13.10;99.90;;;;;;4995577;28;20018;-49
2023/05/20 03:00:01;;;;;;;5.32;3.05;;;13.10;99.90;;;;;;4994831;28;20480;-52
2023/05/20 03:02:26;;;;;;;3.72;2.47;;;13.20;99.90;;;;;;4994973;28;20076;-53
2023/05/20 03:04:53;;;;;;;7.05;3.58;;;13.10;99.90;;;;;;4995134;28;20053;-56
2023/05/20 03:07:20;;;;;;;2.58;2.38;;;13.10;99.90;;;;;;4995161;28;20057;-56
2023/05/20 03:09:46;;;;;;;5.15;2.97;;;13.10;99.90;;;;;;4994841;28;20026;-54
2023/05/20 03:12:11;;;;;;;4.10;2.83;;;13.10;99.90;;;;;;4994933;28;20027;-54
2023/05/20 03:14:37;;;;;;;5.57;2.83;;;13.10;99.90;;;;;;4994881;28;20033;-55
2023/05/20 03:17:02;;;;;;;2.92;2.55;;;13.10;99.90;;;;;;4994881;28;20089;-57
2023/05/20 03:19:28;;;;;;;3.00;2.70;;;13.10;99.90;;;;;;4994225;28;20038;-53
2023/05/20 03:21:53;;;;;;;9.18;3.13;;;13.10;99.90;;;;;;4994405;28;20030;-50
2023/05/20 03:24:19;;;;;;;3.22;2.60;;;13.10;99.90;;;;;;4994616;28;20084;-53
2023/05/20 03:26:45;;;;;;;3.90;3.05;;;13.10;99.90;;;;;;4994921;28;20502;-51
2023/05/20 03:29:11;;;;;;;3.45;2.55;;;13.10;99.90;;;;;;4995007;28;20049;-57
2023/05/20 03:31:36;;;;;;;4.07;3.03;;;13.10;99.90;;;;;;4994244;28;20073;-56
2023/05/20 03:34:02;;;;;;;2.90;2.70;;;13.10;99.90;;;;;;4994548;28;20026;-50
2023/05/20 03:36:28;;;;;;;5.03;2.80;;;13.00;99.90;;;;;;4994432;28;20073;-50
2023/05/20 03:38:53;;;;;;;5.85;3.10;;;13.10;99.90;;;;;;4994260;28;20026;-53
2023/05/20 03:41:19;;;;;;;2.92;2.67;;;13.10;99.90;;;;;;4994186;28;20065;-53
2023/05/20 03:43:45;;;;;;;3.45;3.10;;;13.10;99.90;;;;;;4994436;28;20411;-56
2023/05/20 03:46:10;;;;;;;5.22;3.22;;;13.10;99.90;;;;;;4994578;28;20113;-50
2023/05/20 03:48:36;;;;;;;4.57;2.67;;;13.10;99.90;;;;;;4994203;28;20022;-53
2023/05/20 03:51:02;;;;;;;3.10;2.80;;;13.10;99.90;;;;;;4993992;28;20486;-55
2023/05/20 03:53:27;;;;;;;4.90;3.03;;;13.10;99.90;;;;;;4992992;28;20018;-54
2023/05/20 03:55:53;;;;;;;4.70;3.03;;;13.10;99.90;;;;;;4994145;28;20031;-53
2023/05/20 03:58:19;;;;;;;3.65;2.92;;;13.10;99.90;;;;;;4994104;28;20491;-53
2023/05/20 04:00:46;;;;;;;2.90;2.70;;;13.10;99.90;;;;;;4994259;28;20066;-54
2023/05/20 04:03:11;;;;;;;3.58;3.13;;;13.10;99.90;;;;;;4993850;28;20027;-53
2023/05/20 04:05:37;;;;;;;3.83;3.05;;;13.10;99.90;;;;;;4993832;28;20026;-52
2023/05/20 04:08:03;;;;;;;4.25;2.92;;;13.10;99.90;;;;;;4993927;28;20286;-53
2023/05/20 04:10:33;;;;;;;3.58;3.08;;;13.20;99.90;;;;;;4993749;28;20022;-52
2023/05/20 04:12:58;;;;;;;3.65;2.92;;;13.20;99.90;;;;;;4993439;28;20042;-55
2023/05/20 04:15:24;;;;;;;4.78;3.25;;;13.20;99.90;;;;;;4993728;28;20068;-54
2023/05/20 04:17:51;;;;;;;3.10;2.90;;;13.20;99.90;;;;;;4993671;28;20018;-51
2023/05/20 04:20:17;;;;;;;3.47;3.17;;;13.20;99.90;;;;;;4992989;28;20026;-53
2023/05/20 04:22:43;;;;;;;6.43;2.97;;;13.30;99.90;;;;;;4993291;28;20076;-54
2023/05/20 04:25:09;;;;;;;3.30;3.00;;;13.30;99.90;;;;;;4993717;28;20049;-55
2023/05/20 04:27:36;;;;;;;3.47;3.17;;;13.30;99.90;;;;;;4993500;28;20122;-53
2023/05/20 04:30:04;;;;;;;4.20;3.08;;;13.30;99.90;;;;;;4993020;28;20479;-51
2023/05/20 04:32:29;;;;;;;5.53;3.13;;;13.40;99.90;;;;;;4992971;28;20027;-57
2023/05/20 04:34:54;;;;;;;6.93;3.40;;;13.40;99.90;;;;;;4993375;28;20029;-50
2023/05/20 04:37:21;;;;;;;3.30;3.00;;;13.30;99.90;;;;;;4993345;28;20030;-54
2023/05/20 04:39:48;;;;;;;6.03;3.80;;;13.40;99.90;;;;;;4994187;28;20030;-52
2023/05/20 04:42:16;;;;;;;4.82;2.90;;;13.40;99.90;;;;;;4993544;28;20026;-56
2023/05/20 04:44:44;;;;;;;4.65;3.20;;;13.40;99.90;;;;;;4993485;28;20022;-55
2023/05/20 04:47:10;;;;;;;3.88;3.25;;;13.50;99.90;;;;;;4993393;28;20114;-56
2023/05/20 04:49:36;;;;;;;7.60;3.85;;;13.50;99.90;;;;;;4993075;28;20514;-51
2023/05/20 04:52:03;;;;;;;3.95;3.40;;;13.50;99.90;;;;;;4992791;28;20022;-52
2023/05/20 04:54:29;;;;;;;6.32;3.80;;;13.60;99.90;;;;;;4993027;28;20097;-53
2023/05/20 04:56:55;;;;;;;5.22;3.58;;;13.60;99.90;;;;;;4992967;28;20034;-54
2023/05/20 04:59:21;;;;;;;4.57;3.20;;;13.60;99.90;;;;;;4992517;28;20501;-53
2023/05/20 05:01:46;;;;;;;5.93;3.15;;;13.60;99.90;;;;;;4992469;28;20401;-56
2023/05/20 05:04:12;;;;;;;5.25;3.50;;;13.70;99.90;;;;;;4991470;28;20030;-52
2023/05/20 05:06:37;;;;;;;4.50;3.47;;;13.80;99.90;;;;;;4992906;28;20053;-52
2023/05/20 05:09:03;;;;;;;5.75;3.55;;;13.80;99.90;;;;;;4990980;28;20026;-54
2023/05/20 05:11:29;;;;;;;7.93;4.28;;;14.00;99.90;;;;;;4992309;28;20023;-51
2023/05/20 05:13:55;;;;;;;4.20;3.80;;;14.30;99.90;;;;;;4992600;28;20558;-55
2023/05/20 05:16:21;;;;;;;3.45;3.15;;;14.70;99.90;;;;;;4992524;28;20023;-55
2023/05/20 05:18:46;;;;;;;5.30;3.28;;;14.80;99.90;;;;;;4992380;28;20022;-53
2023/05/20 05:21:12;;;;;;;5.72;3.30;;;14.80;99.90;;;;;;4991278;28;20487;-52
2023/05/20 05:23:37;;;;;;;5.30;3.33;;;14.90;99.90;;;;;;4992130;28;20030;-53
2023/05/20 05:26:03;;;;;;;5.35;3.67;;;15.10;99.90;;;;;;4992474;28;20037;-57
2023/05/20 05:28:28;;;;;;;6.45;3.05;;;15.10;99.90;;;;;;4990867;28;20030;-52
2023/05/20 05:30:57;;;;;;;7.95;3.22;;;15.40;99.90;;;;;;4992274;28;20034;-52
2023/05/20 05:33:23;;;;;;;3.30;3.00;;;15.60;99.90;;;;;;4992128;28;20161;-53
2023/05/20 05:35:49;;;;;;;3.38;3.08;;;15.80;99.90;;;;;;4992447;28;20503;-55
2023/05/20 05:38:15;;;;;;;3.88;3.28;;;16.10;99.90;;;;;;4991974;28;20205;-52
2023/05/20 05:40:40;;;;;;;3.35;3.05;;;16.20;99.90;;;;;;4992240;28;20034;-54
2023/05/20 05:43:06;;;;;;;4.80;3.53;;;16.70;99.90;;;;;;4992103;28;20023;-55
2023/05/20 05:45:31;;;;;;;3.58;3.28;;;16.60;99.90;;;;;;4992064;28;20040;-55
2023/05/20 05:47:57;;;;;;;4.85;3.53;;;16.50;99.90;;;;;;4992135;28;20030;-50
2023/05/20 05:50:23;;;;;;;4.00;2.90;;;16.40;99.90;;;;;;4992486;28;20026;-52
2023/05/20 05:52:48;;;;;;;9.35;3.60;;;16.30;99.90;;;;;;4991874;28;20393;-53
2023/05/20 05:55:14;;;;;;;4.93;3.47;;;16.20;99.90;;;;;;4992329;28;20027;-51
2023/05/20 05:57:39;;;;;;;3.67;3.22;;;15.90;99.90;;;;;;4992284;28;20446;-47
2023/05/20 06:00:06;;;;;;;7.15;3.75;;;15.90;99.90;;;;;;4991797;28;20490;-53
2023/05/20 06:02:35;;;;;;;3.90;3.53;;;15.80;99.90;;;;;;4991870;28;20031;-55
2023/05/20 06:05:02;;;;;;;3.38;3.08;;;15.70;99.90;;;;;;4991885;28;20402;-55
2023/05/20 06:07:28;;;;;;;7.32;4.13;;;15.70;99.90;;;;;;4991914;28;20122;-53
2023/05/20 06:09:53;;;;;;;3.92;3.10;;;15.80;99.90;;;;;;4991558;28;20101;-53
2023/05/20 06:12:19;;;;;;;4.20;3.75;;;15.80;99.90;;;;;;4991651;28;20026;-53
2023/05/20 06:14:44;;;;;;;5.53;3.78;;;15.70;99.90;;;;;;4991675;28;20030;-54
2023/05/20 06:17:10;;;;;;;10.32;3.53;;;15.60;99.90;;;;;;4994068;28;20031;-51
2023/05/20 06:19:35;;;;;;;10.30;4.57;;;15.50;99.90;;;;;;4995261;28;20061;-55
2023/05/20 06:22:01;;;;;;;7.95;3.47;;;15.50;99.90;;;;;;4995495;28;20042;-55
2023/05/20 06:24:26;;;;;;;4.82;3.72;;;15.50;99.90;;;;;;4995618;28;20434;-53
2023/05/20 06:26:52;;;;;;;4.28;3.88;;;15.50;99.90;;;;;;4995693;28;20038;-50
2023/05/20 06:29:17;;;;;;;10.32;4.20;;;15.50;99.90;;;;;;4995218;28;20509;-54
2023/05/20 06:31:43;;;;;;;7.88;3.88;;;15.60;99.90;;;;;;4995438;28;20066;-54
2023/05/20 06:34:08;;;;;;;6.95;4.28;;;15.60;99.90;;;;;;4995499;28;20034;-50
2023/05/20 06:36:34;;;;;;;6.80;4.22;;;15.60;99.90;;;;;;4995849;28;20018;-51
2023/05/20 06:38:59;;;;;;;5.90;4.63;;;15.50;99.90;;;;;;4995084;28;20033;-50
2023/05/20 06:41:25;;;;;;;5.57;3.90;;;15.50;99.90;;;;;;4995180;28;20081;-48
2023/05/20 06:43:51;;;;;;;6.07;3.97;;;15.60;99.90;;;;;;4995340;28;20034;-56
2023/05/20 06:46:16;;;;;;;4.32;3.90;;;15.70;99.90;;;;;;4995921;28;20039;-52
2023/05/20 06:48:42;;;;;;;7.82;4.50;;;15.80;99.90;;;;;;4995152;28;20026;-51
2023/05/20 06:51:08;;;;;;;4.72;4.18;;;15.90;99.90;;;;;;4995255;28;20113;-52
2023/05/20 06:53:34;;;;;;;11.93;4.75;;;16.00;99.90;;;;;;4995089;28;20030;-52
2023/05/20 06:56:00;;;;;;;7.47;4.30;;;16.00;99.90;;;;;;4995277;28;20069;-52
2023/05/20 06:58:25;;;;;;;4.53;3.80;;;15.90;99.90;;;;;;4994971;28;20482;-51
2023/05/20 07:00:51;;;;;;;5.32;4.75;;;15.80;99.90;;;;;;4994002;28;20054;-54
2023/05/20 07:03:16;;;;;;;4.78;4.28;;;15.70;99.90;;;;;;4994838;28;20062;-50
2023/05/20 07:05:42;;;;;;;8.77;4.38;;;15.80;99.90;;;;;;4995232;28;20030;-52
2023/05/20 07:08:07;;;;;;;6.55;4.00;;;15.80;99.90;;;;;;4995057;28;20033;-51
2023/05/20 07:10:33;;;;;;;6.25;5.13;;;15.80;99.90;;;;;;4994959;28;20030;-56
2023/05/20 07:12:59;;;;;;;5.88;4.22;;;15.70;99.90;;;;;;4994726;28;20042;-51
2023/05/20 07:15:24;;;;;;;5.13;4.63;;;15.70;99.90;;;;;;4994933;28;20029;-54
2023/05/20 07:17:50;;;;;;;7.78;4.35;;;15.90;99.90;;;;;;4995100;28;20026;-51
2023/05/20 07:20:15;;;;;;;8.20;4.68;;;15.90;99.90;;;;;;4994291;28;20038;-53
2023/05/20 07:22:42;;;;;;;12.35;4.82;;;15.90;99.90;;;;;;4994370;28;20063;-49
2023/05/20 07:25:09;;;;;;;9.00;4.53;;;15.80;99.90;;;;;;4994765;28;20022;-49
2023/05/20 07:27:34;;;;;;;7.60;4.60;;;15.70;99.90;;;;;;4993662;28;20030;-52
2023/05/20 07:30:00;;;;;;;5.32;4.22;;;15.60;99.90;;;;;;4994392;28;20088;-54
2023/05/20 07:32:26;;;;;;;9.57;5.10;;;15.60;99.90;;;;;;4994306;28;20118;-52
2023/05/20 07:34:52;;;;;;;5.22;4.68;;;15.60;99.90;;;;;;4994633;28;20026;-51
2023/05/20 07:37:17;;;;;;;6.75;4.65;;;15.70;99.90;;;;;;4994748;28;20022;-51
2023/05/20 07:39:43;;;;;;;5.10;4.63;;;15.80;99.90;;;;;;4994063;28;20025;-51
2023/05/20 07:42:08;;;;;;;5.20;4.45;;;15.90;99.90;;;;;;4994244;28;20441;-51
2023/05/20 07:44:34;;;;;;;5.78;4.72;;;15.80;99.90;;;;;;4994272;28;20045;-57
2023/05/20 07:47:01;;;;;;;5.95;4.43;;;15.90;99.90;;;;;;4993777;28;20038;-53
2023/05/20 07:49:27;;;;;;;5.93;5.00;;;15.90;99.90;;;;;;4993912;28;20490;-51
2023/05/20 07:51:52;;;;;;;6.65;4.70;;;15.90;99.90;;;;;;4993961;28;20034;-52
2023/05/20 07:54:18;;;;;;;8.70;4.95;;;16.00;99.90;;;;;;4994183;28;20022;-51
2023/05/20 07:56:43;;;;;;;6.85;5.40;;;16.10;99.90;;;;;;4994353;28;20034;-52
2023/05/20 07:59:09;;;;;;;9.25;5.32;;;16.20;99.90;;;;;;4993695;28;20038;-52
2023/05/20 08:01:35;;;;;;;7.07;5.75;;;16.40;99.90;;;;;;4993876;28;20064;-57
2023/05/20 08:04:00;;;;;;;9.35;5.55;;;16.50;99.90;;;;;;4993050;28;20030;-53
2023/05/20 08:06:26;;;;;;;5.80;5.20;;;16.50;99.90;;;;;;4994212;28;20337;-52
2023/05/20 08:08:55;;;;;;;5.20;4.70;;;16.90;99.90;;;;;;4993582;28;20395;-52
2023/05/20 08:11:21;;;;;;;6.18;5.25;;;17.30;99.90;;;;;;4993593;28;20506;-51
2023/05/20 08:13:47;;;;;;;6.97;5.30;;;17.60;99.90;;;;;;4993819;28;20037;-53
2023/05/20 08:16:13;;;;;;;10.57;6.10;;;17.80;99.90;;;;;;4994000;28;20094;-50
2023/05/20 08:18:38;;;;;;;8.80;5.13;;;18.00;99.90;;;;;;4993372;28;20022;-52
2023/05/20 08:21:08;;;;;;;6.07;5.47;;;18.00;99.90;;;;;;4988720;28;20506;-50
2023/05/20 08:23:34;;;;;;;7.03;4.90;;;17.80;99.90;;;;;;4989466;28;20057;-49
2023/05/20 08:26:01;;;;;;;6.50;5.70;;;18.00;99.90;;;;;;4999431;28;20022;-50
2023/05/20 08:28:27;;;;;;;10.45;5.50;;;18.10;99.90;;;;;;5012778;28;20053;-53
2023/05/20 08:30:53;;;;;;;6.65;5.28;;;18.00;99.90;;;;;;5013001;28;20021;-49
2023/05/20 08:33:20;;;;;;;7.32;5.15;;;17.90;99.90;;;;;;4999292;28;20399;-52
2023/05/20 08:35:46;;;;;;;7.50;5.35;;;17.90;99.90;;;;;;4989848;28;20077;-53
2023/05/20 08:38:12;;;;;;;9.45;5.47;;;18.10;99.90;;;;;;4993026;28;20026;-51
2023/05/20 08:40:37;;;;;;;8.88;5.55;;;18.00;99.90;;;;;;4992447;28;20668;-50
2023/05/20 08:43:04;;;;;;;5.40;4.82;;;18.00;99.90;;;;;;4991580;28;20069;-50
2023/05/20 08:45:31;;;;;;;7.47;5.50;;;18.00;99.90;;;;;;4993175;28;20030;-53
2023/05/20 08:47:57;;;;;;;7.95;5.85;;;18.30;99.90;;;;;;4992827;28;20057;-54
2023/05/20 08:50:23;;;;;;;6.30;5.47;;;18.60;99.90;;;;;;4990692;28;20065;-57
2023/05/20 08:52:49;;;;;;;10.73;5.68;;;18.50;99.90;;;;;;4992047;28;20083;-51
2023/05/20 08:55:23;;;;;;;7.13;5.63;;;18.60;99.90;;;;;;4993163;28;20029;-56
2023/05/20 08:57:50;;;;;;;6.57;5.70;;;18.70;99.90;;;;;;4993198;28;20023;-50
2023/05/20 09:00:17;;;;;;;6.40;5.53;;;18.80;99.90;;;;;;4992748;28;20026;-51
2023/05/20 09:02:44;;;;;;;6.85;5.60;;;18.70;99.90;;;;;;4992871;28;20090;-53
2023/05/20 09:05:10;;;;;;;6.50;5.80;;;18.70;99.90;;;;;;4992934;28;20023;-51
2023/05/20 09:07:36;;;;;;;7.40;5.30;;;18.70;99.90;;;;;;4991838;28;20026;-51
2023/05/20 09:10:03;;;;;;;6.20;5.55;;;18.80;99.90;;;;;;4992898;28;20622;-54
2023/05/20 09:12:29;;;;;;;7.65;5.93;;;18.70;99.90;;;;;;4992800;28;20133;-50
2023/05/20 09:14:54;;;;;;;11.48;5.93;;;18.90;99.90;;;;;;4993079;28;20101;-54
2023/05/20 09:17:23;;;;;;;6.68;5.53;;;19.00;99.90;;;;;;4992160;28;20033;-54
2023/05/20 09:19:50;;;;;;;7.20;5.95;;;19.10;99.90;;;;;;4991819;28;20034;-51
2023/05/20 09:22:22;;;;;;;6.90;5.72;;;19.30;99.90;;;;;;4992225;28;20029;-56
2023/05/20 09:24:48;;;;;;;5.68;5.18;;;19.50;99.90;;;;;;4992516;28;20029;-51
2023/05/20 09:27:13;;;;;;;6.00;5.15;;;19.90;99.90;;;;;;4992815;28;20430;-50
2023/05/20 09:29:39;;;;;;;5.40;4.90;;;20.30;99.90;;;;;;4986856;28;20022;-51
2023/05/20 09:32:05;;;;;;;6.47;5.10;;;20.40;99.40;;;;;;4986475;28;20075;-54
2023/05/20 09:34:30;;;;;;;5.60;5.10;;;20.50;99.70;;;;;;4991487;28;20027;-55
2023/05/20 09:36:59;;;;;;;7.50;5.05;;;20.40;99.40;;;;;;4992086;28;20026;-53
2023/05/20 09:39:29;;;;;;;7.25;5.38;;;20.60;99.90;;;;;;4991956;28;20109;-55
2023/05/20 09:42:11;;;;;;;6.80;5.82;;;20.60;99.90;;;;;;4992050;28;20552;-52
2023/05/20 09:44:38;;;;;;;6.32;5.72;;;20.20;99.20;;;;;;4992344;28;20042;-56
2023/05/20 09:47:06;;;;;;;8.57;5.43;;;19.90;99.90;;;;;;4991540;28;20085;-51
2023/05/20 09:49:32;;;;;;;10.73;6.20;;;19.60;99.90;;;;;;4991693;28;20022;-54
2023/05/20 09:51:59;;;;;;;9.70;5.85;;;19.30;99.90;;;;;;4991137;28;20479;-57
2023/05/20 09:54:26;;;;;;;7.38;5.65;;;19.00;99.90;;;;;;4991443;28;20034;-55
2023/05/20 09:56:53;;;;;;;6.50;5.35;;;18.90;99.90;;;;;;4992191;28;20022;-52
2023/05/20 09:59:21;;;;;;;9.57;6.35;;;18.90;99.90;;;;;;4992008;28;20019;-52
2023/05/20 10:01:46;;;;;;;6.35;5.70;;;18.80;99.90;;;;;;4992006;28;20081;-54
2023/05/20 10:04:15;;;;;;;7.13;6.53;;;18.70;99.90;;;;;;4991599;28;20485;-57
2023/05/20 10:06:57;;;;;;;12.60;6.70;;;18.70;99.90;;;;;;4991517;28;20441;-56
2023/05/20 10:09:35;;;;;;;11.07;9.15;;;18.70;99.90;;;;;;4989402;28;20030;-54
2023/05/20 10:12:18;;;;;;;7.30;6.60;;;18.80;99.90;;;;;;4991696;28;20109;-53
2023/05/20 10:15:02;;;;;;;7.25;6.38;;;18.80;99.90;;;;;;4991936;28;20476;-50
2023/05/20 10:17:34;;;;;;;7.75;5.93;;;18.80;99.90;;;;;;4992556;28;20046;-54
2023/05/20 10:20:00;;;;;;;10.00;6.28;;;18.80;99.90;;;;;;4990677;28;20026;-52
2023/05/20 10:22:32;;;;;;;8.93;6.40;;;18.80;99.90;;;;;;4991944;28;20634;-50
2023/05/20 10:25:02;;;;;;;9.55;6.38;;;18.80;99.90;;;;;;4993183;28;20018;-50
2023/05/20 10:27:28;;;;;;;8.27;6.78;;;18.90;99.90;;;;;;4992899;28;20504;-52
2023/05/20 10:29:56;;;;;;;6.47;5.77;;;19.10;99.90;;;;;;4992077;28;20027;-54
2023/05/20 10:32:28;;;;;;;7.57;6.03;;;19.20;99.90;;;;;;4991176;28;20483;-55
2023/05/20 10:34:59;;;;;;;10.23;6.38;;;19.40;99.90;;;;;;4992180;28;20030;-54
2023/05/20 10:37:30;;;;;;;8.23;6.22;;;19.50;99.90;;;;;;4990823;28;20026;-53
2023/05/20 10:40:10;;;;;;;6.65;6.05;;;19.50;99.90;;;;;;4990312;28;20026;-55
2023/05/20 10:42:36;;;;;;;6.38;5.78;;;19.50;99.90;;;;;;4989001;28;20494;-51
2023/05/20 10:45:02;;;;;;;6.90;6.20;;;19.50;99.90;;;;;;4989297;28;20061;-55
2023/05/20 10:47:28;;;;;;;7.80;6.00;;;19.50;99.90;;;;;;4986653;28;20027;-55
2023/05/20 10:49:54;;;;;;;6.22;5.63;;;19.50;99.90;;;;;;4991133;28;20030;-51
2023/05/20 10:52:20;;;;;;;7.53;6.15;;;19.60;99.90;;;;;;4991749;28;20050;-56
2023/05/20 10:54:56;;;;;;;8.93;6.28;;;19.60;99.90;;;;;;4991468;28;20023;-56
2023/05/20 10:57:22;;;;;;;8.40;6.82;;;19.60;99.90;;;;;;4992454;28;20033;-58
2023/05/20 10:59:48;;;;;;;8.10;6.68;;;19.50;99.90;;;;;;4991421;28;20022;-56
2023/05/20 11:02:15;;;;;;;23.33;14.05;;;19.60;99.90;;;;;;4986881;28;20039;-56
2023/05/20 11:04:45;;;;;;;9.55;7.25;;;19.80;99.90;;;;;;4992305;28;20398;-53
2023/05/20 11:07:11;;;;;;;9.25;6.18;;;19.90;99.80;;;;;;4995611;28;20475;-56
2023/05/20 11:09:36;;;;;;;8.00;5.97;;;19.90;99.90;;;;;;4992390;28;20037;-53
2023/05/20 11:12:02;;;;;;;9.75;6.93;;;20.00;99.90;;;;;;4995657;28;20100;-56
2023/05/20 11:14:28;;;;;;;8.20;6.35;;;19.90;99.70;;;;;;4995662;28;20022;-57
2023/05/20 11:16:58;;;;;;;7.28;6.57;;;19.70;99.90;;;;;;4987348;28;20509;-55
2023/05/20 11:19:25;;;;;;;9.98;6.30;;;19.70;99.90;;;;;;4994803;28;20030;-53
2023/05/20 11:21:50;;;;;;;8.15;6.40;;;19.80;99.90;;;;;;4994969;28;20029;-54
2023/05/20 11:24:27;;;;;;;9.55;6.63;;;19.90;99.90;;;;;;4994493;28;20031;-51
2023/05/20 11:26:56;;;;;;;7.18;6.28;;;20.10;99.90;;;;;;4994174;28;20031;-54
2023/05/20 11:29:22;;;;;;;8.10;6.32;;;20.10;99.90;;;;;;4993789;28;20035;-52
2023/05/20 11:31:49;;;;;;;10.98;6.10;;;20.00;99.70;;;;;;4997580;28;20033;-52
2023/05/20 11:34:15;;;;;;;7.00;6.28;;;19.70;99.80;;;;;;4994644;28;20034;-57
2023/05/20 11:36:41;;;;;;;9.05;5.97;;;19.80;99.90;;;;;;4994317;28;20026;-57
2023/05/20 11:39:10;;;;;;;9.68;7.70;;;19.90;99.90;;;;;;4994317;28;20101;-55
2023/05/20 11:41:35;;;;;;;7.40;6.68;;;19.90;99.60;;;;;;4994429;28;20094;-51
2023/05/20 11:44:01;;;;;;;50.47;30.50;;;19.90;99.90;;;;;;4995422;28;20391;-54
2023/05/20 11:46:27;;;;;;;7.30;6.50;;;20.10;99.90;;;;;;4998226;28;20045;-50
2023/05/20 11:48:56;;;;;;;6.63;5.93;;;20.20;99.40;;;;;;4995630;28;20081;-51
2023/05/20 11:51:28;;;;;;;11.38;7.18;;;20.20;99.90;;;;;;4993711;28;20148;-54
2023/05/20 11:54:05;;;;;;;8.77;6.50;;;20.20;99.80;;;;;;4975188;28;20066;-55
2023/05/20 11:56:33;;;;;;;11.75;6.53;;;20.30;99.00;;;;;;4975101;28;20019;-55
2023/05/20 11:58:59;;;;;;;7.15;6.43;;;20.40;99.50;;;;;;4978899;28;20018;-54
2023/05/20 12:01:26;;;;;;;11.35;7.15;;;20.20;99.30;;;;;;4994389;28;20399;-49
2023/05/20 12:03:52;;;;;;;10.07;7.78;;;20.10;99.80;;;;;;4994169;28;20083;-53
2023/05/20 12:06:18;;;;;;;7.55;6.80;;;20.00;99.60;;;;;;4994014;28;20034;-54
2023/05/20 12:08:45;;;;;;;6.32;5.72;;;19.80;99.90;;;;;;4993591;28;20074;-50
2023/05/20 12:11:10;;;;;;;10.40;6.80;;;19.90;99.90;;;;;;4993881;28;20026;-53
2023/05/20 12:13:36;;;;;;;7.60;6.80;;;20.00;99.90;;;;;;4992944;28;20033;-49
2023/05/20 12:16:04;;;;;;;9.15;7.03;;;20.00;99.40;;;;;;4993781;28;20077;-52
2023/05/20 12:18:30;;;;;;;7.70;6.82;;;20.10;99.40;;;;;;4993596;28;20085;-52
2023/05/20 12:20:56;;;;;;;10.23;6.10;;;19.90;99.60;;;;;;4993801;28;20498;-48
2023/05/20 12:23:21;;;;;;;8.10;6.38;;;19.90;99.90;;;;;;4993318;28;20030;-48
2023/05/20 12:25:48;;;;;;;7.75;6.63;;;20.00;99.80;;;;;;4993615;28;20026;-52
2023/05/20 12:28:15;;;;;;;10.98;6.70;;;20.10;99.20;;;;;;4992415;28;20509;-52
2023/05/20 12:30:40;;;;;;;7.78;6.30;;;20.00;99.50;;;;;;4993706;28;20113;-51
2023/05/20 12:33:06;;;;;;;7.75;6.70;;;19.90;99.60;;;;;;4993299;28;20152;-51
2023/05/20 12:35:42;;;;;;;8.05;7.05;;;20.00;99.50;;;;;;4993403;28;20444;-51
2023/05/20 12:38:08;;;;;;;7.40;6.05;;;20.00;99.50;;;;;;4993133;28;20034;-56
2023/05/20 12:40:34;;;;;;;9.20;6.35;;;20.10;99.80;;;;;;4993749;28;20078;-49
2023/05/20 12:43:02;;;;;;;10.18;6.53;;;20.00;99.50;;;;;;4993283;28;20475;-50